createdAt,value
2017-09-23T00:00:54.150Z,54.5
2017-09-23T00:02:03.770Z,54.4
2017-09-23T00:03:13.080Z,54.5
2017-09-23T00:04:22.060Z,54.4
2017-09-23T00:05:31.597Z,54.6
2017-09-23T00:06:40.579Z,54.4
2017-09-23T00:07:49.253Z,54.69
2017-09-23T00:08:58.535Z,54.69
2017-09-23T00:10:08.162Z,54.5
2017-09-23T00:11:17.141Z,54.21
2017-09-23T00:12:26.446Z,54.4
2017-09-23T00:13:35.096Z,54.31
2017-09-23T00:14:44.064Z,54.4
2017-09-23T00:15:53.034Z,54.4
2017-09-23T00:17:02.338Z,54.4
2017-09-23T00:18:11.305Z,54.4
2017-09-23T00:19:20.612Z,54.5
2017-09-23T00:20:29.579Z,54.5
2017-09-23T00:21:38.558Z,54.4
2017-09-23T00:22:47.635Z,54.4
2017-09-23T00:23:56.300Z,54.6
2017-09-23T00:25:05.588Z,54.5
2017-09-23T00:26:14.606Z,54.4
2017-09-23T00:27:23.575Z,54.4
2017-09-23T00:28:32.237Z,54.4
2017-09-23T00:29:41.205Z,54.4
2017-09-23T00:30:49.861Z,54.4
2017-09-23T00:31:58.828Z,54.31
2017-09-23T00:33:08.180Z,54.5
2017-09-23T00:34:17.477Z,54.21
2017-09-23T00:35:27.082Z,54.21
2017-09-23T00:36:36.057Z,54.21
2017-09-23T00:37:44.708Z,54.4
2017-09-23T00:38:53.703Z,54.21
2017-09-23T00:40:02.982Z,54.4
2017-09-23T00:41:12.355Z,54.31
2017-09-23T00:42:21.013Z,54.31
2017-09-23T00:43:29.666Z,54.31
2017-09-23T00:44:38.640Z,54.5
2017-09-23T00:45:48.528Z,54.31
2017-09-23T00:46:57.507Z,54.21
2017-09-23T00:48:06.484Z,54.4
2017-09-23T00:49:15.766Z,54.31
2017-09-23T00:50:24.737Z,54.5
2017-09-23T00:51:33.542Z,54.31
2017-09-23T00:52:42.202Z,54.31
2017-09-23T00:53:51.493Z,54.4
2017-09-23T00:55:00.787Z,54.31
2017-09-23T00:56:09.464Z,54.31
2017-09-23T00:57:18.583Z,54.4
2017-09-23T00:58:27.256Z,54.4
2017-09-23T00:59:36.229Z,54.4
2017-09-23T01:00:45.239Z,54.31
2017-09-23T01:01:53.860Z,54.31
2017-09-23T01:03:02.507Z,54.4
2017-09-23T01:04:11.492Z,54.31
2017-09-23T01:05:20.456Z,54.5
2017-09-23T01:06:29.679Z,54.4
2017-09-23T01:07:38.330Z,54.4
2017-09-23T01:08:47.608Z,54.31
2017-09-23T01:09:56.597Z,54.31
2017-09-23T01:11:05.880Z,54.31
2017-09-23T01:12:14.534Z,54.4
2017-09-23T01:13:23.809Z,54.31
2017-09-23T01:14:33.088Z,54.31
2017-09-23T01:15:42.071Z,54.31
2017-09-23T01:16:51.352Z,54.31
2017-09-23T01:18:00.322Z,54.31
2017-09-23T01:19:08.983Z,54.31
2017-09-23T01:20:18.100Z,54.4
2017-09-23T01:21:27.391Z,54.31
2017-09-23T01:22:36.692Z,54.31
2017-09-23T01:23:45.671Z,54.31
2017-09-23T01:24:54.326Z,54.31
2017-09-23T01:26:02.988Z,54.31
2017-09-23T01:27:12.580Z,54.4
2017-09-23T01:28:21.245Z,54.31
2017-09-23T01:29:30.222Z,54.31
2017-09-23T01:30:39.195Z,54.31
2017-09-23T01:31:48.281Z,54.21
2017-09-23T01:32:56.936Z,54.21
2017-09-23T01:34:06.220Z,54.31
2017-09-23T01:35:15.221Z,54.31
2017-09-23T01:36:24.503Z,54.31
2017-09-23T01:37:33.802Z,54.31
2017-09-23T01:38:43.091Z,54.31
2017-09-23T01:39:52.075Z,54.31
2017-09-23T01:41:01.063Z,54.31
2017-09-23T01:42:10.369Z,54.31
2017-09-23T01:43:19.338Z,54.5
2017-09-23T01:44:28.300Z,54.31
2017-09-23T01:45:37.898Z,54.5
2017-09-23T01:46:46.563Z,54.4
2017-09-23T01:47:55.545Z,54.5
2017-09-23T01:49:05.193Z,54.4
2017-09-23T01:50:14.805Z,54.5
2017-09-23T01:51:24.086Z,54.5
2017-09-23T01:52:33.069Z,54.31
2017-09-23T01:53:42.372Z,54.31
2017-09-23T01:54:51.336Z,54.4
2017-09-23T01:56:00.613Z,54.4
2017-09-23T01:57:09.603Z,54.4
2017-09-23T01:58:18.887Z,54.6
2017-09-23T01:59:28.171Z,54.4
2017-09-23T02:00:38.253Z,54.4
2017-09-23T02:01:46.916Z,54.4
2017-09-23T02:02:55.893Z,54.4
2017-09-23T02:04:04.544Z,54.4
2017-09-23T02:05:13.519Z,54.88
2017-09-23T02:06:22.328Z,54.5
2017-09-23T02:07:31.287Z,54.4
2017-09-23T02:08:40.337Z,54.4
2017-09-23T02:09:48.991Z,54.5
2017-09-23T02:10:57.970Z,54.5
2017-09-23T02:12:07.563Z,54.31
2017-09-23T02:13:16.220Z,54.31
2017-09-23T02:14:25.192Z,54.4
2017-09-23T02:15:34.181Z,54.4
2017-09-23T02:16:42.845Z,54.4
2017-09-23T02:17:51.510Z,54.4
2017-09-23T02:19:00.797Z,54.5
2017-09-23T02:20:09.460Z,54.4
2017-09-23T02:21:18.759Z,54.5
2017-09-23T02:22:28.066Z,54.6
2017-09-23T02:23:37.645Z,54.6
2017-09-23T02:24:46.300Z,54.79
2017-09-23T02:25:54.951Z,54.4
2017-09-23T02:27:04.286Z,54.4
2017-09-23T02:28:13.270Z,54.6
2017-09-23T02:29:22.394Z,54.6
2017-09-23T02:30:31.086Z,54.69
2017-09-23T02:31:40.052Z,54.4
2017-09-23T02:32:48.712Z,54.4
2017-09-23T02:33:57.680Z,54.57
2017-09-23T02:35:06.980Z,54.4
2017-09-23T02:36:15.971Z,54.6
2017-09-23T02:37:24.935Z,54.4
2017-09-23T02:38:33.924Z,54.6
2017-09-23T02:39:43.214Z,54.31
2017-09-23T02:40:53.133Z,54.5
2017-09-23T02:42:02.436Z,54.4
2017-09-23T02:43:12.043Z,54.69
2017-09-23T02:44:21.032Z,54.6
2017-09-23T02:45:30.638Z,54.69
2017-09-23T02:46:39.929Z,54.6
2017-09-23T02:47:48.904Z,54.69
2017-09-23T02:48:57.893Z,54.4
2017-09-23T02:50:07.180Z,54.69
2017-09-23T02:51:16.163Z,54.69
2017-09-23T02:52:25.113Z,54.31
2017-09-23T02:53:33.754Z,54.5
2017-09-23T02:54:42.412Z,54.4
2017-09-23T02:55:51.377Z,54.69
2017-09-23T02:57:00.978Z,54.6
2017-09-23T02:58:10.258Z,54.6
2017-09-23T02:59:19.222Z,54.5
2017-09-23T03:00:27.877Z,54.4
2017-09-23T03:01:36.865Z,54.4
2017-09-23T03:02:45.828Z,54.4
2017-09-23T03:03:55.125Z,54.5
2017-09-23T03:05:03.800Z,54.69
2017-09-23T03:06:13.407Z,54.5
2017-09-23T03:07:22.060Z,54.31
2017-09-23T03:08:30.727Z,54.5
2017-09-23T03:09:40.489Z,54.4
2017-09-23T03:10:49.764Z,54.4
2017-09-23T03:11:58.753Z,54.38
2017-09-23T03:13:07.721Z,54.31
2017-09-23T03:14:16.695Z,54.4
2017-09-23T03:15:26.607Z,54.4
2017-09-23T03:16:35.904Z,54.31
2017-09-23T03:17:44.559Z,54.4
2017-09-23T03:18:53.204Z,54.4
2017-09-23T03:20:02.510Z,54.5
2017-09-23T03:21:11.775Z,54.31
2017-09-23T03:22:20.467Z,54.5
2017-09-23T03:23:29.752Z,54.69
2017-09-23T03:24:39.370Z,54.31
2017-09-23T03:25:48.336Z,54.4
2017-09-23T03:26:57.410Z,54.98
2017-09-23T03:28:06.703Z,54.69
2017-09-23T03:29:15.979Z,54.6
2017-09-23T03:30:24.695Z,54.6
2017-09-23T03:31:34.299Z,54.6
2017-09-23T03:32:43.596Z,54.6
2017-09-23T03:33:52.572Z,54.5
2017-09-23T03:35:01.863Z,54.5
2017-09-23T03:36:11.483Z,54.57
2017-09-23T03:37:20.443Z,54.69
2017-09-23T03:38:30.040Z,54.69
2017-09-23T03:39:39.024Z,54.47
2017-09-23T03:40:47.745Z,54.4
2017-09-23T03:41:56.714Z,54.66
2017-09-23T03:43:05.373Z,54.31
2017-09-23T03:44:14.522Z,54.69
2017-09-23T03:45:23.176Z,54.79
2017-09-23T03:46:31.869Z,54.69
2017-09-23T03:47:40.846Z,54.6
2017-09-23T03:48:49.804Z,54.69
2017-09-23T03:49:59.251Z,54.69
2017-09-23T03:51:08.233Z,54.69
2017-09-23T03:52:16.893Z,54.69
2017-09-23T03:53:25.562Z,54.6
2017-09-23T03:54:35.205Z,54.69
2017-09-23T03:55:44.597Z,54.47
2017-09-23T03:56:53.900Z,54.4
2017-09-23T03:58:03.202Z,54.69
2017-09-23T03:59:11.857Z,54.76
2017-09-23T04:00:21.164Z,54.66
2017-09-23T04:01:31.100Z,54.47
2017-09-23T04:02:40.377Z,54.6
2017-09-23T04:03:49.365Z,54.38
2017-09-23T04:04:58.977Z,54.6
2017-09-23T04:06:07.943Z,54.38
2017-09-23T04:07:17.328Z,54.57
2017-09-23T04:08:25.991Z,54.38
2017-09-23T04:09:35.589Z,54.4
2017-09-23T04:10:44.868Z,54.66
2017-09-23T04:11:54.168Z,54.38
2017-09-23T04:13:03.303Z,54.38
2017-09-23T04:14:11.960Z,54.38
2017-09-23T04:15:20.937Z,54.57
2017-09-23T04:16:29.922Z,54.76
2017-09-23T04:17:38.910Z,54.38
2017-09-23T04:18:48.218Z,54.57
2017-09-23T04:19:57.510Z,54.57
2017-09-23T04:21:06.172Z,54.28
2017-09-23T04:22:15.150Z,54.57
2017-09-23T04:23:24.128Z,54.5
2017-09-23T04:24:33.593Z,54.69
2017-09-23T04:25:42.552Z,54.28
2017-09-23T04:26:51.551Z,54.66
2017-09-23T04:28:00.513Z,54.66
2017-09-23T04:29:09.812Z,54.38
2017-09-23T04:30:18.910Z,54.66
2017-09-23T04:31:27.874Z,54.47
2017-09-23T04:32:37.172Z,54.57
2017-09-23T04:33:46.139Z,54.66
2017-09-23T04:34:55.418Z,54.57
2017-09-23T04:36:04.818Z,54.66
2017-09-23T04:37:13.821Z,54.28
2017-09-23T04:38:22.817Z,54.66
2017-09-23T04:39:31.825Z,54.47
2017-09-23T04:40:40.487Z,54.66
2017-09-23T04:41:49.478Z,54.47
2017-09-23T04:42:58.769Z,54.28
2017-09-23T04:44:07.751Z,54.57
2017-09-23T04:45:16.393Z,54.76
2017-09-23T04:46:25.373Z,54.66
2017-09-23T04:47:34.649Z,54.66
2017-09-23T04:48:43.620Z,54.6
2017-09-23T04:49:52.917Z,54.38
2017-09-23T04:51:01.898Z,54.79
2017-09-23T04:52:11.484Z,54.57
2017-09-23T04:53:21.247Z,54.28
2017-09-23T04:54:29.917Z,54.38
2017-09-23T04:55:38.593Z,54.28
2017-09-23T04:56:47.609Z,54.57
2017-09-23T04:57:56.660Z,54.6
2017-09-23T04:59:05.665Z,54.69
2017-09-23T05:00:14.643Z,54.69
2017-09-23T05:01:23.633Z,54.38
2017-09-23T05:02:32.295Z,54.38
2017-09-23T05:03:41.280Z,54.38
2017-09-23T05:04:51.242Z,54.47
2017-09-23T05:06:00.547Z,54.69
2017-09-23T05:07:09.905Z,54.47
2017-09-23T05:08:18.579Z,54.57
2017-09-23T05:09:53.229Z,54.66
2017-09-23T05:11:02.842Z,54.47
2017-09-23T05:12:12.148Z,54.38
2017-09-23T05:13:21.136Z,54.66
2017-09-23T05:14:30.110Z,54.47
2017-09-23T05:15:38.936Z,54.38
2017-09-23T05:16:47.923Z,54.5
2017-09-23T05:17:57.218Z,54.5
2017-09-23T05:19:06.536Z,54.66
2017-09-23T05:20:15.513Z,54.47
2017-09-23T05:21:24.644Z,54.47
2017-09-23T05:22:33.380Z,54.38
2017-09-23T05:23:42.670Z,54.38
2017-09-23T05:24:52.018Z,54.31
2017-09-23T05:26:01.305Z,54.28
2017-09-23T05:27:10.897Z,54.57
2017-09-23T05:28:19.570Z,54.38
2017-09-23T05:29:28.867Z,54.28
2017-09-23T05:30:38.216Z,54.38
2017-09-23T05:31:47.192Z,54.28
2017-09-23T05:32:56.000Z,54.28
2017-09-23T05:34:04.683Z,54.4
2017-09-23T05:35:14.282Z,54.5
2017-09-23T05:36:23.569Z,54.18
2017-09-23T05:37:32.224Z,54.28
2017-09-23T05:38:41.843Z,54.21
2017-09-23T05:39:51.464Z,54.57
2017-09-23T05:41:00.753Z,54.38
2017-09-23T05:42:09.786Z,54.38
2017-09-23T05:43:18.471Z,54.38
2017-09-23T05:44:27.441Z,54.6
2017-09-23T05:45:36.722Z,54.28
2017-09-23T05:46:46.013Z,54.66
2017-09-23T05:47:54.673Z,54.57
2017-09-23T05:49:04.587Z,54.47
2017-09-23T05:50:13.548Z,54.57
2017-09-23T05:51:22.852Z,54.28
2017-09-23T05:52:31.846Z,54.6
2017-09-23T05:53:41.126Z,54.38
2017-09-23T05:54:50.441Z,54.28
2017-09-23T05:55:59.742Z,54.38
2017-09-23T05:57:09.056Z,54.66
2017-09-23T05:58:18.348Z,54.18
2017-09-23T05:59:27.344Z,54.09
2017-09-23T06:00:36.311Z,54.31
2017-09-23T06:01:46.084Z,54.38
2017-09-23T06:02:55.065Z,54.28
2017-09-23T06:04:04.677Z,54.28
2017-09-23T06:05:14.041Z,54.28
2017-09-23T06:06:22.698Z,53.8
2017-09-23T06:07:31.997Z,53.89
2017-09-23T06:08:40.976Z,53.99
2017-09-23T06:09:49.951Z,54.28
2017-09-23T06:10:58.943Z,54.47
2017-09-23T06:12:07.619Z,54.28
2017-09-23T06:13:16.729Z,54.57
2017-09-23T06:14:26.042Z,54.18
2017-09-23T06:15:35.025Z,54.28
2017-09-23T06:16:44.338Z,54.38
2017-09-23T06:17:52.994Z,54.47
2017-09-23T06:19:02.318Z,53.99
2017-09-23T06:20:11.304Z,54.38
2017-09-23T06:21:19.966Z,54.47
2017-09-23T06:22:28.962Z,53.83
2017-09-23T06:23:38.255Z,54.09
2017-09-23T06:24:47.149Z,54.47
2017-09-23T06:25:56.129Z,53.99
2017-09-23T06:27:05.738Z,54.28
2017-09-23T06:28:14.404Z,54.6
2017-09-23T06:29:23.063Z,54.47
2017-09-23T06:30:31.848Z,54.38
2017-09-23T06:31:40.579Z,54.38
2017-09-23T06:32:49.604Z,54.38
2017-09-23T06:33:58.292Z,54.6
2017-09-23T06:35:07.599Z,54.02
2017-09-23T06:36:16.698Z,54.38
2017-09-23T06:37:25.672Z,54.09
2017-09-23T06:38:34.652Z,54.4
2017-09-23T06:39:43.312Z,54.38
2017-09-23T06:40:52.625Z,54.6
2017-09-23T06:42:01.916Z,54.38
2017-09-23T06:43:10.890Z,54.4
2017-09-23T06:44:20.180Z,54.38
2017-09-23T06:45:29.477Z,54.28
2017-09-23T06:46:38.465Z,54.31
2017-09-23T06:47:47.439Z,54.4
2017-09-23T06:48:56.782Z,54.28
2017-09-23T06:50:05.769Z,54.09
2017-09-23T06:51:14.777Z,54.28
2017-09-23T06:52:23.773Z,54.4
2017-09-23T06:53:33.464Z,54.4
2017-09-23T06:54:42.774Z,54.4
2017-09-23T06:55:52.073Z,54.4
2017-09-23T06:57:01.377Z,54.31
2017-09-23T06:58:10.398Z,54.11
2017-09-23T06:59:19.545Z,54.4
2017-09-23T07:00:28.533Z,53.92
2017-09-23T07:01:37.850Z,54.21
2017-09-23T07:02:46.834Z,54.21
2017-09-23T07:03:55.812Z,54.21
2017-09-23T07:05:04.478Z,54.21
2017-09-23T07:06:13.821Z,54.21
2017-09-23T07:07:22.483Z,54.11
2017-09-23T07:08:32.090Z,54.31
2017-09-23T07:09:41.704Z,53.73
2017-09-23T07:10:50.772Z,54.02
2017-09-23T07:11:59.483Z,54.31
2017-09-23T07:13:09.115Z,53.44
2017-09-23T07:14:18.080Z,53.73
2017-09-23T07:15:27.051Z,53.53
2017-09-23T07:16:36.014Z,53.53
2017-09-23T07:17:45.001Z,53.34
2017-09-23T07:18:53.670Z,53.37
2017-09-23T07:20:02.328Z,53.27
2017-09-23T07:21:11.338Z,53.17
2017-09-23T07:22:20.629Z,53.37
2017-09-23T07:23:29.607Z,53.47
2017-09-23T07:24:38.580Z,53.56
2017-09-23T07:25:47.869Z,53.37
2017-09-23T07:26:56.688Z,52.98
2017-09-23T07:28:05.354Z,53.17
2017-09-23T07:29:14.009Z,52.89
2017-09-23T07:30:22.708Z,52.89
2017-09-23T07:31:31.949Z,53.08
2017-09-23T07:32:41.572Z,53.08
2017-09-23T07:33:51.172Z,52.79
2017-09-23T07:35:00.483Z,53.17
2017-09-23T07:36:09.455Z,53.08
2017-09-23T07:37:18.133Z,52.69
2017-09-23T07:38:27.909Z,53.27
2017-09-23T07:39:37.243Z,53.27
2017-09-23T07:40:46.227Z,52.59
2017-09-23T07:41:55.215Z,52.98
2017-09-23T07:43:04.812Z,53.08
2017-09-23T07:44:14.096Z,52.89
2017-09-23T07:45:22.769Z,52.69
2017-09-23T07:46:31.814Z,52.53
2017-09-23T07:47:40.824Z,52.89
2017-09-23T07:48:50.443Z,52.53
2017-09-23T07:49:59.593Z,52.53
2017-09-23T07:51:08.573Z,52.62
2017-09-23T07:52:17.879Z,52.5
2017-09-23T07:53:26.553Z,52.59
2017-09-23T07:54:36.180Z,52.72
2017-09-23T07:55:45.159Z,52.72
2017-09-23T07:56:54.471Z,52.72
2017-09-23T07:58:03.446Z,52.5
2017-09-23T07:59:12.753Z,52.53
2017-09-23T08:00:22.035Z,52.53
2017-09-23T08:01:31.725Z,52.62
2017-09-23T08:02:40.732Z,52.53
2017-09-23T08:03:49.396Z,52.62
2017-09-23T08:04:58.769Z,52.72
2017-09-23T08:06:07.455Z,52.53
2017-09-23T08:07:16.544Z,52.62
2017-09-23T08:08:25.571Z,52.81
2017-09-23T08:09:34.252Z,52.33
2017-09-23T08:10:43.583Z,53.01
2017-09-23T08:11:52.573Z,53.39
2017-09-23T08:13:01.871Z,53.39
2017-09-23T08:14:10.526Z,53.08
2017-09-23T08:15:19.818Z,52.81
2017-09-23T08:16:28.879Z,53.17
2017-09-23T08:17:37.546Z,53.11
2017-09-23T08:18:47.058Z,53.2
2017-09-23T08:19:56.022Z,53.2
2017-09-23T08:21:05.058Z,53.2
2017-09-23T08:22:14.339Z,53.08
2017-09-23T08:23:23.304Z,53.3
2017-09-23T08:24:32.064Z,53.27
2017-09-23T08:25:40.726Z,53.3
2017-09-23T08:26:50.097Z,52.81
2017-09-23T08:27:58.743Z,53.3
2017-09-23T08:29:07.402Z,52.72
2017-09-23T08:30:16.200Z,53.11
2017-09-23T08:31:25.209Z,53.01
2017-09-23T08:32:34.551Z,53.39
2017-09-23T08:33:43.520Z,53.39
2017-09-23T08:34:52.806Z,53.39
2017-09-23T08:36:02.092Z,52.62
2017-09-23T08:37:11.393Z,53.01
2017-09-23T08:38:20.674Z,53.11
2017-09-23T08:39:29.971Z,52.62
2017-09-23T08:40:39.246Z,52.72
2017-09-23T08:41:48.559Z,52.53
2017-09-23T08:42:57.586Z,52.72
2017-09-23T08:44:07.212Z,52.53
2017-09-23T08:45:15.878Z,52.81
2017-09-23T08:46:24.542Z,52.72
2017-09-23T08:47:33.504Z,53.01
2017-09-23T08:48:42.808Z,52.91
2017-09-23T08:49:51.771Z,52.53
2017-09-23T08:51:01.068Z,52.53
2017-09-23T08:52:09.729Z,52.43
2017-09-23T08:53:19.005Z,52.43
2017-09-23T08:54:27.976Z,52.33
2017-09-23T08:55:37.294Z,52.75
2017-09-23T08:56:46.662Z,52.72
2017-09-23T08:57:55.463Z,52.84
2017-09-23T08:59:05.418Z,52.84
2017-09-23T09:00:14.087Z,52.75
2017-09-23T09:01:23.051Z,51.97
2017-09-23T09:02:32.017Z,52.17
2017-09-23T09:03:41.321Z,52.17
2017-09-23T09:04:50.382Z,52.84
2017-09-23T09:05:59.374Z,52.65
2017-09-23T09:07:08.702Z,52.65
2017-09-23T09:08:17.977Z,52.65
2017-09-23T09:09:27.256Z,52.65
2017-09-23T09:10:36.241Z,52.53
2017-09-23T09:11:45.230Z,53.2
2017-09-23T09:12:54.528Z,53.11
2017-09-23T09:14:03.562Z,53.11
2017-09-23T09:15:12.290Z,53.59
2017-09-23T09:16:22.034Z,53.85
2017-09-23T09:17:31.480Z,54.24
2017-09-23T09:18:40.202Z,54.72
2017-09-23T09:19:49.737Z,54.88
2017-09-23T09:20:59.744Z,54.79
2017-09-23T09:22:09.600Z,54.98
2017-09-23T09:23:18.891Z,55.46
2017-09-23T09:24:27.919Z,55.82
2017-09-23T09:25:36.887Z,56.01
2017-09-23T09:26:46.503Z,56.3
2017-09-23T09:27:55.997Z,57.05
2017-09-23T09:29:04.970Z,57.05
2017-09-23T09:30:13.982Z,57.14
2017-09-23T09:31:22.686Z,57.02
2017-09-23T09:32:32.300Z,57.4
2017-09-23T09:33:41.883Z,57.69
2017-09-23T09:34:51.169Z,57.6
2017-09-23T09:36:00.448Z,57.79
2017-09-23T09:37:09.729Z,57.6
2017-09-23T09:38:19.051Z,57.6
2017-09-23T09:39:28.509Z,57.6
2017-09-23T09:40:37.219Z,57.76
2017-09-23T09:41:46.201Z,58.34
2017-09-23T09:42:55.510Z,58.15
2017-09-23T09:44:04.478Z,58.05
2017-09-23T09:45:13.749Z,58.05
2017-09-23T09:46:23.037Z,58.53
2017-09-23T09:47:32.024Z,58.34
2017-09-23T09:48:41.008Z,58.34
2017-09-23T09:49:50.313Z,58.31
2017-09-23T09:50:58.976Z,58.7
2017-09-23T09:52:08.261Z,58.98
2017-09-23T09:53:17.864Z,58.79
2017-09-23T09:54:27.162Z,58.98
2017-09-23T09:55:35.834Z,58.7
2017-09-23T09:56:44.955Z,58.6
2017-09-23T09:57:54.565Z,58.5
2017-09-23T09:59:03.568Z,58.79
2017-09-23T10:00:12.217Z,58.89
2017-09-23T10:01:21.838Z,58.79
2017-09-23T10:02:31.288Z,58.95
2017-09-23T10:03:40.259Z,59.37
2017-09-23T10:04:49.543Z,59.27
2017-09-23T10:05:58.510Z,58.98
2017-09-23T10:07:07.155Z,58.89
2017-09-23T10:08:16.434Z,59.08
2017-09-23T10:09:25.417Z,58.7
2017-09-23T10:10:34.713Z,59.08
2017-09-23T10:11:44.005Z,58.6
2017-09-23T10:12:52.971Z,59.08
2017-09-23T10:14:01.938Z,58.7
2017-09-23T10:15:10.898Z,58.7
2017-09-23T10:16:19.549Z,58.5
2017-09-23T10:17:28.590Z,58.67
2017-09-23T10:18:37.570Z,58.4
2017-09-23T10:19:46.251Z,58.67
2017-09-23T10:20:55.217Z,58.98
2017-09-23T10:22:04.823Z,58.67
2017-09-23T10:23:13.512Z,58.7
2017-09-23T10:24:22.492Z,58.76
2017-09-23T10:25:31.492Z,58.86
2017-09-23T10:26:40.479Z,58.76
2017-09-23T10:27:50.380Z,58.67
2017-09-23T10:28:59.663Z,58.57
2017-09-23T10:30:08.956Z,58.67
2017-09-23T10:31:18.070Z,58.57
2017-09-23T10:32:27.046Z,58.28
2017-09-23T10:33:35.694Z,58.57
2017-09-23T10:34:45.029Z,58.57
2017-09-23T10:35:54.036Z,58.57
2017-09-23T10:37:03.161Z,58.28
2017-09-23T10:38:12.154Z,58.28
2017-09-23T10:39:21.463Z,58.67
2017-09-23T10:40:30.423Z,58.76
2017-09-23T10:41:39.422Z,58.28
2017-09-23T10:42:49.343Z,58.22
2017-09-23T10:43:58.328Z,58.31
2017-09-23T10:45:08.263Z,58.02
2017-09-23T10:46:17.558Z,58.12
2017-09-23T10:47:26.538Z,58.12
2017-09-23T10:48:35.189Z,58.12
2017-09-23T10:49:44.158Z,58.31
2017-09-23T10:50:53.429Z,57.92
2017-09-23T10:52:02.408Z,57.73
2017-09-23T10:53:11.378Z,57.92
2017-09-23T10:54:20.180Z,57.45
2017-09-23T10:55:30.102Z,57.54
2017-09-23T10:56:39.399Z,57.35
2017-09-23T10:57:48.377Z,57.06
2017-09-23T10:58:57.361Z,56.87
2017-09-23T11:00:06.982Z,56.87
2017-09-23T11:01:16.011Z,56.87
2017-09-23T11:02:24.993Z,56.87
2017-09-23T11:03:33.647Z,57.06
2017-09-23T11:04:42.319Z,57.06
2017-09-23T11:05:51.281Z,57.09
2017-09-23T11:07:00.245Z,56.77
2017-09-23T11:08:09.518Z,56.1
2017-09-23T11:09:18.187Z,56.32
2017-09-23T11:10:27.283Z,56.6
2017-09-23T11:11:36.239Z,56.7
2017-09-23T11:12:45.231Z,56.32
2017-09-23T11:13:54.557Z,56.6
2017-09-23T11:15:03.215Z,56.41
2017-09-23T11:16:12.494Z,56.51
2017-09-23T11:17:21.611Z,56.51
2017-09-23T11:18:30.587Z,56.41
2017-09-23T11:19:39.549Z,56.22
2017-09-23T11:20:48.203Z,56.22
2017-09-23T11:21:56.857Z,56.41
2017-09-23T11:23:05.990Z,56.41
2017-09-23T11:24:14.961Z,56.22
2017-09-23T11:25:24.240Z,56.41
2017-09-23T11:26:33.527Z,56.6
2017-09-23T11:27:42.497Z,56.2
2017-09-23T11:28:51.441Z,56.1
2017-09-23T11:30:00.731Z,56.32
2017-09-23T11:31:10.009Z,56.51
2017-09-23T11:32:19.632Z,56.51
2017-09-23T11:33:28.928Z,56.32
2017-09-23T11:34:38.212Z,56.7
2017-09-23T11:35:47.499Z,56.51
2017-09-23T11:36:56.154Z,56.41
2017-09-23T11:38:04.838Z,56.32
2017-09-23T11:39:14.125Z,56.41
2017-09-23T11:40:23.128Z,56.51
2017-09-23T11:41:32.409Z,56.32
2017-09-23T11:42:41.069Z,56.41
2017-09-23T11:43:49.721Z,56.29
2017-09-23T11:44:59.384Z,56.48
2017-09-23T11:46:09.131Z,56.48
2017-09-23T11:47:19.046Z,56.51
2017-09-23T11:48:28.663Z,56.7
2017-09-23T11:49:37.641Z,56.41
2017-09-23T11:50:46.950Z,56.2
2017-09-23T11:51:56.090Z,56.41
2017-09-23T11:53:05.718Z,56.12
2017-09-23T11:54:15.018Z,56.51
2017-09-23T11:55:23.693Z,56.51
2017-09-23T11:56:32.682Z,56.51
2017-09-23T11:57:41.839Z,56.22
2017-09-23T11:58:50.810Z,56.6
2017-09-23T12:00:00.408Z,56.03
2017-09-23T12:01:09.073Z,55.83
2017-09-23T12:02:18.386Z,56.03
2017-09-23T12:03:27.821Z,56.03
2017-09-23T12:04:37.109Z,55.93
2017-09-23T12:05:46.397Z,55.93
2017-09-23T12:06:55.407Z,56.12
2017-09-23T12:08:04.393Z,56.12
2017-09-23T12:09:13.683Z,56.03
2017-09-23T12:10:22.412Z,56.12
2017-09-23T12:11:31.084Z,55.74
2017-09-23T12:12:40.070Z,55.65
2017-09-23T12:13:49.379Z,55.55
2017-09-23T12:14:59.154Z,55.65
2017-09-23T12:16:08.462Z,55.65
2017-09-23T12:17:17.760Z,55.65
2017-09-23T12:18:27.042Z,55.74
2017-09-23T12:19:36.975Z,55.45
2017-09-23T12:20:46.128Z,55.65
2017-09-23T12:21:55.406Z,55.74
2017-09-23T12:23:04.389Z,55.65
2017-09-23T12:24:13.348Z,55.26
2017-09-23T12:25:22.338Z,55.16
2017-09-23T12:26:31.451Z,55.16
2017-09-23T12:27:40.404Z,55.09
2017-09-23T12:28:50.027Z,55.16
2017-09-23T12:29:58.675Z,55.29
2017-09-23T12:31:07.349Z,55
2017-09-23T12:32:16.312Z,55.19
2017-09-23T12:33:25.286Z,55.26
2017-09-23T12:34:34.284Z,55.19
2017-09-23T12:35:43.255Z,55.26
2017-09-23T12:36:52.543Z,55.26
2017-09-23T12:38:01.885Z,54.97
2017-09-23T12:39:10.871Z,55.16
2017-09-23T12:40:21.254Z,54.97
2017-09-23T12:41:30.247Z,54.87
2017-09-23T12:42:38.910Z,55.29
2017-09-23T12:43:47.602Z,55.48
2017-09-23T12:44:56.906Z,55.29
2017-09-23T12:46:05.576Z,55.19
2017-09-23T12:47:14.859Z,55.38
2017-09-23T12:48:24.170Z,55.19
2017-09-23T12:49:33.355Z,54.8
2017-09-23T12:50:42.372Z,55
2017-09-23T12:51:51.978Z,54.9
2017-09-23T12:53:00.965Z,54.9
2017-09-23T12:54:09.632Z,55.09
2017-09-23T12:55:19.324Z,55.09
2017-09-23T12:56:28.921Z,55.19
2017-09-23T12:57:37.929Z,55.09
2017-09-23T12:58:47.845Z,55.29
2017-09-23T12:59:56.846Z,55.38
2017-09-23T13:01:06.140Z,55.19
2017-09-23T13:02:15.133Z,55.48
2017-09-23T13:03:24.435Z,55.29
2017-09-23T13:04:33.428Z,55.16
2017-09-23T13:05:42.115Z,55.07
2017-09-23T13:06:50.914Z,55.07
2017-09-23T13:08:00.199Z,55.45
2017-09-23T13:09:09.187Z,55.07
2017-09-23T13:10:18.156Z,55.26
2017-09-23T13:11:27.124Z,55.45
2017-09-23T13:12:36.107Z,55.26
2017-09-23T13:13:46.103Z,55.55
2017-09-23T13:14:54.850Z,55.65
2017-09-23T13:16:04.218Z,55.74
2017-09-23T13:17:12.953Z,55.74
2017-09-23T13:18:22.071Z,55.65
2017-09-23T13:19:31.045Z,55.45
2017-09-23T13:20:40.344Z,55.16
2017-09-23T13:21:49.319Z,55.55
2017-09-23T13:22:58.303Z,55.16
2017-09-23T13:24:07.122Z,54.97
2017-09-23T13:25:16.431Z,55.35
2017-09-23T13:26:25.146Z,55.07
2017-09-23T13:27:34.421Z,55.26
2017-09-23T13:28:43.764Z,55.16
2017-09-23T13:29:53.200Z,54.97
2017-09-23T13:31:02.199Z,54.8
2017-09-23T13:32:11.162Z,55.07
2017-09-23T13:33:19.820Z,54.8
2017-09-23T13:34:28.787Z,54.61
2017-09-23T13:35:37.445Z,54.42
2017-09-23T13:36:46.100Z,54.61
2017-09-23T13:37:55.413Z,54.71
2017-09-23T13:39:04.064Z,54.8
2017-09-23T13:40:13.029Z,54.52
2017-09-23T13:41:22.682Z,54.52
2017-09-23T13:42:31.324Z,54.22
2017-09-23T13:43:40.311Z,54.22
2017-09-23T13:44:48.970Z,54.52
2017-09-23T13:45:58.260Z,54.42
2017-09-23T13:47:07.211Z,54.32
2017-09-23T13:48:16.500Z,54.52
2017-09-23T13:49:25.582Z,54.32
2017-09-23T13:50:34.547Z,54.13
2017-09-23T13:51:43.214Z,54.42
2017-09-23T13:52:52.486Z,54.32
2017-09-23T13:54:01.456Z,54.32
2017-09-23T13:55:10.742Z,54.22
2017-09-23T13:56:19.454Z,54.52
2017-09-23T13:57:28.721Z,54.42
2017-09-23T13:58:37.529Z,54.52
2017-09-23T13:59:46.816Z,54.32
2017-09-23T14:00:56.137Z,54.52
2017-09-23T14:02:05.115Z,54.52
2017-09-23T14:03:14.142Z,54.22
2017-09-23T14:04:23.095Z,54.13
2017-09-23T14:05:32.378Z,53.96
2017-09-23T14:06:41.651Z,54.13
2017-09-23T14:07:51.273Z,53.96
2017-09-23T14:09:00.242Z,54.44
2017-09-23T14:10:09.622Z,53.87
2017-09-23T14:11:18.284Z,54.35
2017-09-23T14:12:26.936Z,53.87
2017-09-23T14:13:35.596Z,54.16
2017-09-23T14:14:44.564Z,54.06
2017-09-23T14:15:53.940Z,54.06
2017-09-23T14:17:03.223Z,54.06
2017-09-23T14:18:12.192Z,53.87
2017-09-23T14:19:21.181Z,53.77
2017-09-23T14:20:30.163Z,53.77
2017-09-23T14:21:39.208Z,54.06
2017-09-23T14:22:47.861Z,54.16
2017-09-23T14:23:57.150Z,54.03
2017-09-23T14:25:06.144Z,54.16
2017-09-23T14:26:15.789Z,53.77
2017-09-23T14:27:25.419Z,53.67
2017-09-23T14:28:34.034Z,53.77
2017-09-23T14:29:42.700Z,53.87
2017-09-23T14:30:51.691Z,53.77
2017-09-23T14:32:00.654Z,53.67
2017-09-23T14:33:09.458Z,54.06
2017-09-23T14:34:18.100Z,54.06
2017-09-23T14:35:27.385Z,54.06
2017-09-23T14:36:36.369Z,54.35
2017-09-23T14:37:45.649Z,53.87
2017-09-23T14:38:55.089Z,53.96
2017-09-23T14:40:04.073Z,53.94
2017-09-23T14:41:13.371Z,54.35
2017-09-23T14:42:22.963Z,54.35
2017-09-23T14:43:33.187Z,54.32
2017-09-23T14:44:42.301Z,54.25
2017-09-23T14:45:51.281Z,54.06
2017-09-23T14:47:00.295Z,54.13
2017-09-23T14:48:09.323Z,54.06
2017-09-23T14:49:18.660Z,53.96
2017-09-23T14:50:28.407Z,53.96
2017-09-23T14:51:37.385Z,53.96
2017-09-23T14:52:46.665Z,54.25
2017-09-23T14:53:55.652Z,54.13
2017-09-23T14:55:04.653Z,54.13
2017-09-23T14:56:13.779Z,54.25
2017-09-23T14:57:23.371Z,54.32